Main page
METAR-TAF:

METAR-TAF

Airports :

Nîmes–Alès–Camargue–Cévennes Airport

Nîmes, France

latitude: 43-45N, longitude: 004-25E, elevation: 94 m

Current weather observation

The report was made 9 hours and 2 minutes ago, at 05:00 UTC
Wind 6 kt from the North
Temperature 22°C
Humidity 65%
Pressure 1015 hPa
Visibility 10 km or more
no clouds below 1500 m and no cumulonimbus

METAR: LFTW 210500Z AUTO 36006KT CAVOK 22/15 Q1015 NOSIG

Time: 16:02 (14:02 UTC)

Forecast

The report was made 12 hours and 2 minutes ago, at 02:00 UTC
Forecast valid from 21 at 03 UTC to 22 at 03 UTC
Wind 10 kt from the North
Visibility 10 km or more
no clouds below 1500 m and no cumulonimbus
Becoming
from 21 at 10 UTC to 21 at 12 UTC
Wind 2 kt from variable directions
Temporary
from 21 at 12 UTC to 21 at 15 UTC
Wind 10 kt from the South
Becoming
from 21 at 19 UTC to 21 at 21 UTC
Wind 10 kt from the North/Northwest

TAF: LFTW 210200Z 2103/2203 36010KT CAVOK BECMG 2110/2112 VRB02KT TEMPO 2112/2115 18010KT BECMG 2119/2121 34010KT

Weather observations and forecasts of more than 4000 airports (METAR and TAF reports).

The available stations are represented by yellow and red dots on the map.

Hover mouse over dot to see the name of the station.

Then click to see weather observations and forecasts.

To change the map : click on the green buttons with a black cross to zoom in, on the green button with a dash to zoom out, or on the green arrows for adjacent maps.


METAR-TAF: